Portada
METAR-TAF:

METAR-TAF

Aeroports :

Orlando Executive Airport

Orlando, Florida, Estats Units d'Amèrica

latitud: 28-32-47N, longitud: 081-20-09W, altitud: 34 m

Observació

L'informe es va fer fa 3 hores i 13 minuts, a les 18:19 UTC
Vent 8 kt del Est/Nord-Est
Temperatura 24°C
Humitat 83%
Pressió 1017 hPa
Visibilitat: 3.2 km
Escasses núvols a una alçada de 1500 ft
Cel ennuvolat a una alçada de 3900 ft
Cel cobert a una alçada de 5500 ft
tempesta, pluja

METAR: KORL 191819Z 07008KT 2SM R07/2600VP6000FT TSRA FEW015 BKN039 OVC055 24/21 A3004 RMK AO2 LTG DSNT SW TSB18 P0020 T02390211

Hora: 17:32 (21:32 UTC)


TAF: manca

Observacions i pronòstics meteorològics de més de 4000 aeroports (METAR i TAF).

Les estacions disponibles són els punts grocs i vermells al mapa.

Posi el ratolí al punt desitjat per veure el nom de l'estació.

Feu clic per veure les observacions i els pronòstics meteorològics.

Per canviar el mapa: feu clic els botons verds amb una creu de color negre per apropar; al botó verd amb un guió per allunyar la imatge; o en les fletxes verdes per a mapes adjacents.


METAR-TAF: